Time;durP1;ratioP1;P1;durP2;ratioP2;P2;SDS_P1;SDS_P2;PMS_P1;PMS_P2;Temp;Humidity;BMP_temperature;BMP_pressure;BME280_temperature;BME280_humidity;BME280_pressure;Samples;Min_cycle;Max_cycle;Signal;HPM_P1;HPM_P2
2022/02/20 00:00:46;;;;;;;11.43;4.12;;;;;;;2.42;65.92;100317.30;1622548;87;20914;-73
2022/02/20 00:03:12;;;;;;;9.05;3.25;;;;;;;2.41;65.90;100317.72;1621624;86;20979;-73
2022/02/20 00:05:38;;;;;;;12.43;4.08;;;;;;;2.40;65.92;100314.72;1627142;87;20935;-72
2022/02/20 00:08:05;;;;;;;9.73;4.00;;;;;;;2.41;65.95;100318.13;1642066;86;20971;-73
2022/02/20 00:10:31;;;;;;;9.23;4.00;;;;;;;2.42;65.96;100316.02;1635685;86;20946;-73
2022/02/20 00:12:59;;;;;;;10.70;3.98;;;;;;;2.41;65.97;100313.88;1624386;85;21020;-73
2022/02/20 00:15:26;;;;;;;10.10;4.30;;;;;;;2.42;66.00;100311.77;1642969;85;20889;-73
2022/02/20 00:17:54;;;;;;;12.33;4.80;;;;;;;2.44;66.00;100308.82;1644151;85;20965;-73
2022/02/20 00:20:21;;;;;;;13.72;4.72;;;;;;;2.43;65.99;100296.90;1642934;85;20885;-72
2022/02/20 00:22:48;;;;;;;14.10;4.20;;;;;;;2.43;65.99;100299.45;1643142;85;20941;-72
2022/02/20 00:25:14;;;;;;;11.55;4.97;;;;;;;2.42;66.04;100295.19;1643315;85;20897;-73
2022/02/20 00:27:40;;;;;;;14.60;4.92;;;;;;;2.42;66.03;100295.61;1643124;85;20967;-73
2022/02/20 00:30:07;;;;;;;16.07;4.63;;;;;;;2.42;66.07;100288.81;1669048;82;20868;-73
2022/02/20 00:32:33;;;;;;;;;;;;;;;2.42;66.07;100286.67;1703193;82;20915;-73
2022/02/20 00:34:59;;;;;;;14.80;4.90;;;;;;;2.43;66.14;100283.28;1701154;82;20110;-72
2022/02/20 00:37:24;;;;;;;12.43;4.22;;;;;;;2.43;66.07;100271.80;1718892;82;20937;-73
2022/02/20 00:39:50;;;;;;;8.77;3.67;;;;;;;2.43;66.11;100266.70;1701328;82;20880;-72
2022/02/20 00:42:18;;;;;;;8.70;3.75;;;;;;;2.43;66.09;100270.11;1701194;82;20912;-72
2022/02/20 00:44:45;;;;;;;9.47;3.97;;;;;;;2.45;66.13;100266.30;1701506;82;20943;-72
2022/02/20 00:47:10;;;;;;;16.87;4.97;;;;;;;2.44;66.12;100259.06;1701024;82;20963;-72
2022/02/20 00:49:37;;;;;;;13.75;4.55;;;;;;;2.44;66.10;100256.93;1700952;82;20903;-72
2022/02/20 00:52:04;;;;;;;11.97;4.83;;;;;;;2.44;66.12;100257.78;1701010;82;20947;-73
2022/02/20 00:54:30;;;;;;;16.90;5.08;;;;;;;2.42;66.10;100245.43;1701295;82;20952;-72
2022/02/20 00:56:59;;;;;;;11.25;4.55;;;;;;;2.40;66.15;100249.66;1700845;82;20951;-72
2022/02/20 00:59:25;;;;;;;12.33;4.47;;;;;;;2.41;66.16;100241.59;1701297;82;20868;-72
2022/02/20 01:01:51;;;;;;;14.98;5.08;;;;;;;2.40;66.17;100233.08;1577476;82;10000922;-72
2022/02/20 01:04:17;;;;;;;10.03;4.80;;;;;;;2.40;66.17;100234.77;1712809;82;20916;-72
2022/02/20 01:06:42;;;;;;;11.67;4.77;;;;;;;2.38;66.21;100225.83;1711652;82;20861;-73
2022/02/20 01:09:08;;;;;;;9.63;4.27;;;;;;;2.39;66.20;100228.81;1681091;82;20872;-73
2022/02/20 01:11:35;;;;;;;11.50;4.20;;;;;;;2.39;66.21;100219.87;1716034;82;20899;-73
2022/02/20 01:14:01;;;;;;;9.28;4.47;;;;;;;2.39;66.24;100216.47;1700023;82;20942;-72
2022/02/20 01:16:27;;;;;;;11.68;4.28;;;;;;;2.39;66.26;100210.95;1698989;83;20912;-73
2022/02/20 01:18:53;;;;;;;16.00;5.53;;;;;;;2.38;66.25;100210.52;1581892;83;10000066;-73
2022/02/20 01:21:20;;;;;;;9.33;4.22;;;;;;;2.38;66.30;100215.62;1695272;83;20904;-73
2022/02/20 01:23:46;;;;;;;12.97;5.00;;;;;;;2.38;66.26;100206.69;1699040;83;20904;-72
2022/02/20 01:26:12;;;;;;;10.72;3.35;;;;;;;2.37;66.29;100200.30;1699157;83;21620;-72
2022/02/20 01:28:39;;;;;;;9.75;3.83;;;;;;;2.37;66.32;100196.05;1627833;86;21013;-72
2022/02/20 01:31:05;;;;;;;9.85;4.00;;;;;;;2.38;66.32;100191.38;1699114;83;21026;-73
2022/02/20 01:33:31;;;;;;;13.83;4.37;;;;;;;2.40;66.32;100185.02;1699327;83;20856;-72
2022/02/20 01:36:05;;;;;;;8.50;3.47;;;;;;;2.39;66.33;100179.48;1698845;83;21403;-73
2022/02/20 01:38:32;;;;;;;9.43;3.50;;;;;;;2.39;66.38;100169.27;1631992;87;20901;-72
2022/02/20 01:40:58;;;;;;;11.85;4.40;;;;;;;2.41;66.38;100167.17;1697240;83;20919;-72
2022/02/20 01:43:24;;;;;;;7.05;3.40;;;;;;;2.43;66.40;100167.19;1699087;83;20876;-73
2022/02/20 01:45:50;;;;;;;10.43;3.90;;;;;;;2.45;66.43;100159.13;1674579;84;20872;-73
2022/02/20 01:48:16;;;;;;;10.68;3.55;;;;;;;2.48;66.47;100156.61;1699198;83;20947;-73
2022/02/20 01:50:42;;;;;;;7.15;3.37;;;;;;;2.50;66.47;100153.23;1699279;83;20880;-73
2022/02/20 01:53:09;;;;;;;8.70;3.55;;;;;;;2.54;66.51;100146.45;1698847;83;20916;-73
2022/02/20 01:55:39;;;;;;;8.25;3.62;;;;;;;2.57;66.48;100137.55;1699022;83;20904;-73
2022/02/20 01:58:05;;;;;;;;;;;;;;;2.58;66.48;100135.02;1701543;83;20912;-73
2022/02/20 02:00:32;;;;;;;6.85;3.30;;;;;;;2.61;66.59;100129.05;1703429;83;20108;-73
2022/02/20 02:02:58;;;;;;;10.28;2.58;;;;;;;2.65;66.53;100124.41;1700550;83;20971;-73
2022/02/20 02:05:24;;;;;;;9.83;3.43;;;;;;;2.71;66.55;100127.42;1699427;83;20981;-73
2022/02/20 02:07:51;;;;;;;11.13;3.40;;;;;;;2.75;66.57;100124.05;1699453;83;20924;-73
2022/02/20 02:10:17;;;;;;;3.90;2.50;;;;;;;2.79;66.57;100116.43;1643372;86;21652;-73
2022/02/20 02:12:44;;;;;;;7.97;2.77;;;;;;;2.84;66.58;100117.32;1699015;83;20983;-72
2022/02/20 02:15:12;;;;;;;8.80;2.72;;;;;;;2.89;66.59;100112.25;1698507;83;21542;-72
2022/02/20 02:17:39;;;;;;;4.55;2.27;;;;;;;2.93;66.60;100113.55;1698394;83;20916;-73
2022/02/20 02:20:08;;;;;;;10.53;3.00;;;;;;;2.98;66.62;100101.67;1699083;83;21420;-73
2022/02/20 02:22:34;;;;;;;4.45;2.08;;;;;;;3.05;66.62;100104.27;1633329;86;20969;-73
2022/02/20 02:25:03;;;;;;;4.92;2.35;;;;;;;3.09;66.65;100099.19;1688175;83;20920;-73
2022/02/20 02:27:29;;;;;;;5.83;2.10;;;;;;;3.15;66.62;100095.78;1682616;83;20912;-73
2022/02/20 02:29:56;;;;;;;8.95;1.82;;;;;;;3.18;66.66;100095.38;1699468;83;20983;-73
2022/02/20 02:32:22;;;;;;;6.75;2.60;;;;;;;3.23;66.66;100094.13;1643959;85;25011;-73
2022/02/20 02:34:49;;;;;;;5.50;2.02;;;;;;;3.26;66.69;100084.78;1636750;87;20961;-73
2022/02/20 02:37:16;;;;;;;5.15;2.10;;;;;;;3.30;66.71;100092.89;1699339;83;20896;-73
2022/02/20 02:39:44;;;;;;;4.08;1.75;;;;;;;3.33;66.77;100086.52;1699346;83;20916;-73
2022/02/20 02:42:11;;;;;;;4.78;1.65;;;;;;;3.33;66.84;100083.96;1699426;83;20971;-73
2022/02/20 02:44:37;;;;;;;3.90;1.70;;;;;;;3.34;66.95;100075.88;1635618;86;20985;-73
2022/02/20 02:47:03;;;;;;;10.63;1.80;;;;;;;3.34;66.97;100077.16;1692841;83;26063;-73
2022/02/20 02:49:29;;;;;;;3.77;1.55;;;;;;;3.35;67.05;100066.50;1699277;83;20904;-73
2022/02/20 02:51:59;;;;;;;6.85;1.82;;;;;;;3.34;67.05;100066.93;1702624;83;21435;-73
2022/02/20 02:54:25;;;;;;;10.15;1.92;;;;;;;3.35;67.16;100067.78;1629576;87;21407;-73
2022/02/20 02:56:51;;;;;;;5.73;2.03;;;;;;;3.36;67.23;100065.66;1699352;83;21447;-73
2022/02/20 02:59:18;;;;;;;3.77;1.75;;;;;;;3.36;67.23;100065.66;1698763;83;21879;-73
2022/02/20 03:01:46;;;;;;;;;;;;;;;3.35;67.28;100062.25;1701502;83;21428;-73
2022/02/20 03:04:13;;;;;;;4.03;1.52;;;;;;;3.36;67.58;100047.77;1693317;83;20540;-73
2022/02/20 03:06:39;;;;;;;7.58;2.25;;;;;;;3.36;67.35;100047.77;1699160;83;21503;-73
2022/02/20 03:09:10;;;;;;;6.00;1.70;;;;;;;3.36;67.35;100036.27;1631487;87;20921;-73
2022/02/20 03:11:34;;;;;;;5.72;1.65;;;;;;;3.35;67.41;100035.42;1693696;83;21372;-73
2022/02/20 03:14:01;;;;;;;;;;;;;;;3.37;67.44;100036.70;1702777;82;20960;-73
2022/02/20 03:16:26;;;;;;;;;;;;;;;3.36;67.68;100041.38;1703421;83;20098;-73
2022/02/20 03:18:52;;;;;;;5.92;1.67;;;;;;;3.38;67.78;100038.41;1701444;82;20761;-73
2022/02/20 03:21:18;;;;;;;4.97;1.33;;;;;;;3.37;67.55;100039.26;1701464;82;20936;-73
2022/02/20 03:23:44;;;;;;;5.00;2.00;;;;;;;3.37;67.56;100031.59;1700807;82;21478;-73
2022/02/20 03:26:10;;;;;;;6.62;1.95;;;;;;;3.37;67.60;100034.14;1701301;83;21499;-73
2022/02/20 03:28:37;;;;;;;9.48;2.45;;;;;;;3.37;67.61;100032.87;1701053;82;21396;-73
2022/02/20 03:31:03;;;;;;;5.60;1.60;;;;;;;3.35;67.61;100030.31;1700861;82;21428;-73
2022/02/20 03:33:30;;;;;;;6.95;1.77;;;;;;;3.35;67.62;100026.90;1701250;82;21392;-73
2022/02/20 03:35:56;;;;;;;7.05;2.87;;;;;;;3.34;67.66;100022.22;1701096;82;20923;-73
2022/02/20 03:38:22;;;;;;;4.62;1.80;;;;;;;3.35;67.67;100017.95;1701242;82;20908;-73
2022/02/20 03:40:48;;;;;;;5.10;1.77;;;;;;;3.35;67.71;100005.18;1646282;86;21533;-73
2022/02/20 03:43:14;;;;;;;3.33;1.57;;;;;;;3.36;67.67;100009.44;1701291;82;21791;-73
2022/02/20 03:45:40;;;;;;;5.60;2.27;;;;;;;3.34;67.72;100001.77;1701016;82;20951;-73
2022/02/20 03:48:08;;;;;;;4.95;2.12;;;;;;;3.33;67.72;99998.36;1700953;82;21517;-72
2022/02/20 03:50:34;;;;;;;7.37;2.13;;;;;;;3.35;67.77;100000.06;1677266;82;20935;-72
2022/02/20 03:53:00;;;;;;;3.40;1.53;;;;;;;3.36;67.79;99998.80;1701067;82;21728;-73
2022/02/20 03:55:26;;;;;;;3.10;1.13;;;;;;;3.37;67.77;99998.38;1701425;82;21640;-73
2022/02/20 03:57:52;;;;;;;5.50;1.55;;;;;;;3.38;67.83;99994.97;1718616;82;20947;-73
2022/02/20 04:00:25;;;;;;;5.20;1.30;;;;;;;3.39;67.80;99994.97;1700875;82;20954;-73
2022/02/20 04:02:51;;;;;;;5.40;2.20;;;;;;;3.40;67.80;99992.84;1700663;82;21348;-73
2022/02/20 04:05:19;;;;;;;8.25;1.80;;;;;;;3.41;67.83;99987.31;1701267;82;20891;-73
2022/02/20 04:07:46;;;;;;;3.75;1.50;;;;;;;3.40;67.91;99986.45;1699228;83;21478;-73
2022/02/20 04:10:14;;;;;;;5.97;1.62;;;;;;;3.42;67.91;99984.77;1699000;82;21562;-73
2022/02/20 04:12:41;;;;;;;5.28;1.60;;;;;;;3.44;67.94;99983.48;1700928;82;21364;-73
2022/02/20 04:15:10;;;;;;;8.35;1.82;;;;;;;3.44;67.95;99980.94;1700358;83;20948;-73
2022/02/20 04:17:45;;;;;;;6.42;1.77;;;;;;;3.44;68.00;99974.12;1676221;84;20920;-73
2022/02/20 04:20:15;;;;;;;8.98;2.05;;;;;;;3.45;67.98;99980.94;1674617;83;20967;-73
2022/02/20 04:22:44;;;;;;;7.05;1.95;;;;;;;3.45;68.04;99969.86;1700931;83;20884;-73
2022/02/20 04:25:11;;;;;;;7.60;2.22;;;;;;;3.44;68.07;99971.98;1677411;84;21482;-73
2022/02/20 04:27:39;;;;;;;4.65;2.35;;;;;;;3.43;68.08;99965.17;1701013;82;20955;-73
2022/02/20 04:30:07;;;;;;;2.92;1.42;;;;;;;3.41;68.11;99963.03;1700958;82;21550;-73
2022/02/20 04:32:34;;;;;;;4.40;1.57;;;;;;;3.40;68.15;99966.02;1703913;82;20944;-73
2022/02/20 04:35:01;;;;;;;6.53;2.02;;;;;;;3.39;68.18;99962.18;1700982;82;21382;-73
2022/02/20 04:37:28;;;;;;;4.63;1.10;;;;;;;3.36;68.22;99957.91;1701017;82;21621;-73
2022/02/20 04:39:54;;;;;;;4.42;1.60;;;;;;;3.36;68.31;99953.23;1701121;82;20912;-73
2022/02/20 04:42:20;;;;;;;3.63;1.57;;;;;;;3.34;68.34;99946.84;1701126;82;21608;-73
2022/02/20 04:44:46;;;;;;;5.27;1.60;;;;;;;3.31;68.35;99946.41;1699779;82;20920;-73
2022/02/20 04:47:12;;;;;;;7.55;1.80;;;;;;;3.31;68.34;99941.72;1701147;82;21610;-73
2022/02/20 04:49:38;;;;;;;6.20;1.37;;;;;;;3.29;68.39;99941.71;1701121;82;21388;-73
2022/02/20 04:52:05;;;;;;;4.97;1.98;;;;;;;3.28;68.42;99937.45;1700901;82;21432;-73
2022/02/20 04:54:31;;;;;;;4.97;2.08;;;;;;;3.28;68.47;99937.45;1719289;82;20951;-73
2022/02/20 04:56:57;;;;;;;4.55;1.67;;;;;;;3.27;68.48;99931.06;1701044;82;21514;-73
2022/02/20 04:59:23;;;;;;;5.17;1.65;;;;;;;3.24;68.51;99926.80;1701080;82;20864;-73
2022/02/20 05:01:49;;;;;;;5.77;1.27;;;;;;;3.23;68.53;99928.92;1701248;82;21034;-73
2022/02/20 05:04:15;;;;;;;3.02;1.42;;;;;;;3.22;68.62;99927.22;1701251;82;20868;-73
2022/02/20 05:06:44;;;;;;;6.08;1.90;;;;;;;3.20;68.58;99914.01;1701216;82;20860;-73
2022/02/20 05:09:10;;;;;;;5.42;1.70;;;;;;;3.14;68.59;99926.34;1701212;82;20956;-73
2022/02/20 05:11:36;;;;;;;6.30;2.33;;;;;;;3.10;68.59;99924.66;1700845;82;20935;-73
2022/02/20 05:14:06;;;;;;;4.50;1.90;;;;;;;3.04;68.61;99918.67;1700125;82;20952;-73
2022/02/20 05:16:32;;;;;;;8.13;2.63;;;;;;;2.96;68.65;99914.39;1699020;83;20975;-73
2022/02/20 05:18:58;;;;;;;4.77;1.57;;;;;;;2.91;68.79;99917.35;1636625;87;20957;-73
2022/02/20 05:21:25;;;;;;;4.40;1.70;;;;;;;2.88;68.94;99918.62;1699356;83;20990;-72
2022/02/20 05:23:52;;;;;;;5.08;1.60;;;;;;;2.83;68.99;99911.36;1699151;83;21204;-72
2022/02/20 05:26:17;;;;;;;5.45;1.80;;;;;;;2.80;69.00;99905.39;1698895;83;20963;-72
2022/02/20 05:28:43;;;;;;;7.80;2.10;;;;;;;2.78;69.13;99904.53;1643961;85;20922;-73
2022/02/20 05:31:09;;;;;;;4.87;2.05;;;;;;;2.76;69.09;99901.12;1643989;85;20994;-73
2022/02/20 05:33:36;;;;;;;4.80;1.67;;;;;;;2.71;69.18;99896.42;1641420;87;20973;-73
2022/02/20 05:36:03;;;;;;;6.53;2.10;;;;;;;2.70;69.28;99891.73;1695163;83;20884;-73
2022/02/20 05:38:29;;;;;;;7.62;3.33;;;;;;;2.69;69.21;99886.20;1698104;83;28093;-73
2022/02/20 05:40:55;;;;;;;6.85;2.67;;;;;;;2.65;69.22;99894.69;1674730;84;21047;-73
2022/02/20 05:43:21;;;;;;;7.12;2.17;;;;;;;2.62;69.28;99886.59;1696658;83;21030;-73
2022/02/20 05:45:48;;;;;;;5.00;2.08;;;;;;;2.59;69.23;99884.48;1631918;86;21079;-73
2022/02/20 05:48:14;;;;;;;19.57;17.40;;;;;;;2.55;69.36;99889.14;1638675;85;21057;-73
2022/02/20 05:50:40;;;;;;;211.60;78.60;;;;;;;2.53;69.41;99891.69;1650264;85;20887;-73
2022/02/20 05:53:06;;;;;;;4.12;2.40;;;;;;;2.51;69.49;99883.17;1689269;83;21114;-73
2022/02/20 05:55:32;;;;;;;62.58;5.75;;;;;;;2.51;69.56;99880.63;1696614;83;21043;-73
2022/02/20 05:57:58;;;;;;;17.63;5.77;;;;;;;2.50;69.56;99876.36;1716647;83;21000;-73
2022/02/20 06:00:28;;;;;;;5.30;2.35;;;;;;;2.50;69.56;99874.23;1702462;82;20948;-73
2022/02/20 06:03:01;;;;;;;6.67;2.10;;;;;;;2.49;69.72;99868.28;1698933;83;20896;-73
2022/02/20 06:05:26;;;;;;;4.12;2.25;;;;;;;2.51;69.80;99868.28;1698887;83;20892;-73
2022/02/20 06:07:52;;;;;;;3.17;1.70;;;;;;;2.51;69.80;99864.45;1699235;83;20860;-73
2022/02/20 06:10:18;;;;;;;3.15;2.10;;;;;;;2.53;69.82;99863.63;1699390;83;20983;-73
2022/02/20 06:12:44;;;;;;;7.87;2.37;;;;;;;2.52;69.87;99858.51;1699058;83;20903;-73
2022/02/20 06:15:12;;;;;;;8.15;2.20;;;;;;;2.52;69.86;99856.81;1675069;84;20920;-73
2022/02/20 06:17:38;;;;;;;9.18;2.70;;;;;;;2.53;69.93;99857.66;1694480;83;21388;-73
2022/02/20 06:20:05;;;;;;;7.10;2.60;;;;;;;2.54;69.95;99866.59;1694636;83;20915;-73
2022/02/20 06:22:31;;;;;;;5.85;2.05;;;;;;;2.55;70.00;99855.55;1694458;83;20970;-73
2022/02/20 06:24:58;;;;;;;102.80;40.33;;;;;;;2.54;69.99;99850.02;1697792;83;20904;-73
2022/02/20 06:27:24;;;;;;;6.33;2.30;;;;;;;2.56;70.06;99851.30;1637994;87;20959;-73
2022/02/20 06:29:50;;;;;;;8.85;2.30;;;;;;;2.56;70.06;99855.98;1690569;83;20920;-73
2022/02/20 06:32:16;;;;;;;6.40;2.50;;;;;;;2.58;70.17;99856.84;1694880;83;27977;-73
2022/02/20 06:34:42;;;;;;;3.30;2.40;;;;;;;2.60;70.23;99864.05;1690367;82;20991;-73
2022/02/20 06:37:08;;;;;;;8.17;2.53;;;;;;;2.64;70.31;99856.83;1673818;83;20872;-73
2022/02/20 06:39:34;;;;;;;5.47;2.20;;;;;;;2.68;70.27;99861.52;1681744;83;20950;-72
2022/02/20 06:42:00;;;;;;;5.50;2.13;;;;;;;2.70;70.27;99860.25;1677878;83;20979;-73
2022/02/20 06:44:26;;;;;;;4.35;2.33;;;;;;;2.72;70.34;99849.63;1678813;83;20944;-73
2022/02/20 06:46:53;;;;;;;5.12;2.05;;;;;;;2.74;70.31;99856.44;1681848;83;20928;-73
2022/02/20 06:49:18;;;;;;;3.77;2.30;;;;;;;2.77;70.37;99859.00;1679322;83;20939;-73
2022/02/20 06:51:45;;;;;;;5.12;2.52;;;;;;;2.77;70.38;99853.05;1654417;83;20936;-72
2022/02/20 06:54:11;;;;;;;4.62;2.37;;;;;;;2.78;70.36;99850.50;1668387;83;20960;-72
2022/02/20 06:56:37;;;;;;;6.53;3.10;;;;;;;2.80;70.47;99856.89;1675170;83;20911;-73
2022/02/20 06:59:03;;;;;;;8.40;3.27;;;;;;;2.80;70.42;99855.61;1672846;83;20964;-73
2022/02/20 07:01:29;;;;;;;9.17;2.47;;;;;;;2.81;70.55;99861.14;1686293;83;21601;-73
2022/02/20 07:03:56;;;;;;;5.17;2.55;;;;;;;2.83;70.59;99866.69;1674030;83;20916;-73
2022/02/20 07:06:27;;;;;;;6.72;2.85;;;;;;;2.85;70.63;99861.58;1674809;83;20961;-73
2022/02/20 07:08:54;;;;;;;3.90;3.00;;;;;;;2.86;70.58;99856.48;1677487;83;21704;-73
2022/02/20 07:11:21;;;;;;;7.67;3.40;;;;;;;2.88;70.71;99862.45;1673565;83;20930;-73
2022/02/20 07:13:48;;;;;;;7.00;3.05;;;;;;;2.89;70.68;99857.77;1679362;83;20912;-73
2022/02/20 07:16:14;;;;;;;4.20;2.90;;;;;;;2.90;70.58;99864.58;1683812;83;21724;-73
2022/02/20 07:18:40;;;;;;;4.87;3.02;;;;;;;2.92;70.74;99866.71;1684260;83;20968;-73
2022/02/20 07:21:13;;;;;;;4.90;2.60;;;;;;;2.95;70.74;99863.31;1676683;83;20955;-73
2022/02/20 07:23:39;;;;;;;5.50;2.80;;;;;;;2.96;70.73;99863.32;1678905;83;20967;-73
2022/02/20 07:26:05;;;;;;;4.40;3.00;;;;;;;2.98;70.82;99865.88;1680593;83;20865;-73
2022/02/20 07:28:31;;;;;;;5.13;2.70;;;;;;;3.00;70.85;99866.73;1677807;83;20916;-73
2022/02/20 07:30:57;;;;;;;4.90;2.30;;;;;;;3.00;70.81;99866.73;1680667;83;21742;-73
2022/02/20 07:33:23;;;;;;;5.33;2.95;;;;;;;3.03;70.84;99869.30;1686238;82;20972;-73
2022/02/20 07:35:49;;;;;;;4.73;3.03;;;;;;;3.06;70.94;99874.41;1686014;83;20856;-73
2022/02/20 07:38:15;;;;;;;3.20;2.90;;;;;;;3.08;70.92;99872.72;1675503;83;21010;-73
2022/02/20 07:40:41;;;;;;;5.80;3.05;;;;;;;3.11;70.87;99875.70;1681074;83;21643;-73
2022/02/20 07:43:07;;;;;;;4.43;2.70;;;;;;;3.12;71.01;99884.61;1643649;85;20911;-73
2022/02/20 07:45:36;;;;;;;5.45;2.87;;;;;;;3.14;70.92;99884.19;1619914;87;21544;-73
2022/02/20 07:48:03;;;;;;;2.87;2.30;;;;;;;3.15;70.98;99881.22;1677275;83;21058;-73
2022/02/20 07:50:34;;;;;;;;;;;;;;;3.14;71.04;99879.51;1688235;83;21537;-73
2022/02/20 07:53:02;;;;;;;2.65;2.33;;;;;;;3.15;71.30;99888.88;1677763;83;20341;-73
2022/02/20 07:55:29;;;;;;;5.40;2.62;;;;;;;3.14;71.15;99890.58;1675712;83;20963;-73
2022/02/20 07:57:56;;;;;;;6.03;2.98;;;;;;;3.15;71.26;99902.92;1624309;87;20972;-73
2022/02/20 08:00:30;;;;;;;4.58;2.80;;;;;;;3.16;71.19;99891.86;1687986;83;20948;-73
2022/02/20 08:02:55;;;;;;;4.70;3.15;;;;;;;3.18;71.22;99895.27;1694063;83;21087;-73
2022/02/20 08:05:22;;;;;;;6.47;3.05;;;;;;;3.19;71.32;99895.70;1633693;85;21111;-73
2022/02/20 08:07:52;;;;;;;4.92;2.95;;;;;;;3.20;71.33;99898.25;1695471;83;21082;-74
2022/02/20 08:10:19;;;;;;;4.97;3.08;;;;;;;3.21;71.38;99899.96;1697765;82;22113;-74
2022/02/20 08:12:45;;;;;;;3.12;2.77;;;;;;;3.23;71.41;99908.91;1697823;83;21055;-74
2022/02/20 08:15:11;;;;;;;4.72;2.15;;;;;;;3.25;71.54;99902.95;1631380;87;21433;-74
2022/02/20 08:17:46;;;;;;;2.92;2.42;;;;;;;3.26;71.48;99903.80;1698720;82;21182;-74
2022/02/20 08:20:15;;;;;;;3.30;2.22;;;;;;;3.31;71.44;99904.24;1667489;84;21101;-74
2022/02/20 08:22:42;;;;;;;3.30;2.27;;;;;;;3.35;71.53;99910.64;1692624;83;20931;-74
2022/02/20 08:25:09;;;;;;;;;;;;;;;3.40;71.57;99919.17;1694140;83;20959;-74
2022/02/20 08:27:35;;;;;;;2.33;1.90;;;;;;;3.43;71.94;99915.34;1691497;82;20161;-74
2022/02/20 08:30:03;;;;;;;;;;;;;;;3.44;71.63;99909.37;1703291;82;20904;-74
2022/02/20 08:32:30;;;;;;;2.47;2.00;;;;;;;3.49;71.98;99912.37;1700546;82;20142;-75
2022/02/20 08:34:57;;;;;;;4.05;2.20;;;;;;;3.52;71.59;99912.38;1700830;82;20877;-74
2022/02/20 08:37:23;;;;;;;4.40;2.52;;;;;;;3.54;71.62;99913.66;1700593;82;20955;-74
2022/02/20 08:39:49;;;;;;;2.60;2.40;;;;;;;3.57;71.66;99923.45;1700980;82;20883;-74
2022/02/20 08:42:15;;;;;;;2.33;2.12;;;;;;;3.61;71.69;99930.70;1700221;82;20904;-74
2022/02/20 08:44:42;;;;;;;3.15;2.37;;;;;;;3.62;71.68;99934.54;1699939;82;20947;-75
2022/02/20 08:47:08;;;;;;;2.62;2.40;;;;;;;3.63;71.66;99937.52;1700690;82;21500;-75
2022/02/20 08:49:34;;;;;;;2.55;2.20;;;;;;;3.62;71.66;99937.52;1691026;82;20927;-74
2022/02/20 08:52:08;;;;;;;3.42;2.10;;;;;;;3.60;71.65;99939.22;1699198;82;21012;-74
2022/02/20 08:54:36;;;;;;;2.55;2.30;;;;;;;3.62;71.69;99938.80;1700768;83;20896;-74
2022/02/20 08:57:07;;;;;;;3.27;2.42;;;;;;;3.62;71.73;99949.88;1700574;82;20911;-74
2022/02/20 08:59:30;;;;;;;4.80;3.45;;;;;;;3.64;71.80;99949.84;1662414;84;20927;-75
2022/02/20 09:01:56;;;;;;;6.63;5.30;;;;;;;3.63;71.75;99949.45;1675415;83;21764;-73
2022/02/20 09:04:22;;;;;;;8.03;5.73;;;;;;;3.64;71.86;99957.52;1660857;83;20895;-73
2022/02/20 09:06:48;;;;;;;8.90;5.70;;;;;;;3.68;71.90;99951.55;1684177;82;20908;-73
2022/02/20 09:09:14;;;;;;;8.17;5.57;;;;;;;3.71;71.93;99961.79;1642152;84;21224;-73
2022/02/20 09:11:40;;;;;;;5.10;3.73;;;;;;;3.74;71.92;99958.38;1690322;82;20885;-73
2022/02/20 09:14:09;;;;;;;3.52;2.83;;;;;;;3.67;71.94;99947.30;1691355;82;21664;-73
2022/02/20 09:16:35;;;;;;;5.55;2.58;;;;;;;3.79;71.92;99953.70;1682713;82;20928;-73
2022/02/20 09:19:03;;;;;;;2.92;2.58;;;;;;;3.82;71.90;99961.38;1656732;84;20995;-73
2022/02/20 09:21:31;;;;;;;3.17;2.67;;;;;;;3.88;72.08;99970.33;1630740;85;20978;-73
2022/02/20 09:23:58;;;;;;;3.33;2.30;;;;;;;3.94;72.07;99965.22;1688519;83;20935;-73
2022/02/20 09:26:24;;;;;;;2.47;2.10;;;;;;;4.00;72.17;99968.20;1681861;83;20912;-73
2022/02/20 09:28:50;;;;;;;2.20;1.82;;;;;;;4.07;72.14;99969.06;1687256;83;20920;-73
2022/02/20 09:31:17;;;;;;;3.83;1.77;;;;;;;4.05;72.04;99977.16;1684915;83;20916;-73
2022/02/20 09:33:46;;;;;;;2.33;1.95;;;;;;;4.06;72.15;99982.28;1688567;83;20936;-73
2022/02/20 09:36:12;;;;;;;1.65;1.52;;;;;;;4.10;72.25;99983.98;1678514;83;20935;-73
2022/02/20 09:38:38;;;;;;;2.37;2.00;;;;;;;4.12;72.09;99989.95;1685150;82;20944;-73
2022/02/20 09:41:08;;;;;;;2.00;1.80;;;;;;;4.14;72.17;99987.40;1685632;83;21301;-73
2022/02/20 09:43:36;;;;;;;1.87;1.72;;;;;;;4.15;72.20;99989.95;1655781;84;20931;-73
2022/02/20 09:46:03;;;;;;;1.85;1.72;;;;;;;4.16;72.17;99998.03;1682869;83;20916;-73
2022/02/20 09:48:29;;;;;;;1.70;1.60;;;;;;;4.15;72.23;99996.36;1623455;85;20994;-73
2022/02/20 09:50:56;;;;;;;2.40;2.15;;;;;;;4.15;72.23;99996.36;1687513;83;20911;-73
2022/02/20 09:53:22;;;;;;;4.15;2.25;;;;;;;4.17;72.32;100004.84;1676486;83;20939;-73
2022/02/20 09:55:49;;;;;;;4.22;2.17;;;;;;;4.19;72.37;99998.03;1678382;83;20955;-73
2022/02/20 09:58:18;;;;;;;1.80;1.70;;;;;;;4.19;72.27;100000.59;1634503;85;20955;-73
2022/02/20 10:01:06;;;;;;;2.10;1.65;;;;;;;4.20;72.40;99998.45;1691122;83;20884;-73
2022/02/20 10:03:42;;;;;;;2.25;1.55;;;;;;;4.20;72.23;99998.88;1698945;83;20939;-74
2022/02/20 10:06:14;;;;;;;1.82;1.70;;;;;;;4.18;72.26;100007.84;1698057;83;20954;-74
2022/02/20 10:08:50;;;;;;;3.20;2.25;;;;;;;4.17;72.28;100007.84;1698954;83;20912;-74
2022/02/20 10:11:27;;;;;;;16.48;8.45;;;;;;;4.15;72.20;100006.59;1698474;83;20904;-74
2022/02/20 10:14:11;;;;;;;6.78;4.60;;;;;;;4.15;72.37;100009.58;1695842;83;20933;-74
2022/02/20 10:16:39;;;;;;;8.48;6.47;;;;;;;4.16;72.35;100004.88;1695106;83;20987;-74
2022/02/20 10:19:05;;;;;;;7.85;5.83;;;;;;;4.16;72.37;100005.70;1700921;82;20880;-74
2022/02/20 10:21:34;;;;;;;22.42;13.22;;;;;;;4.17;72.42;100011.67;1685175;83;20880;-74
2022/02/20 10:24:12;;;;;;;5.62;4.85;;;;;;;4.19;72.43;100011.25;1655299;86;20915;-74
2022/02/20 10:26:48;;;;;;;7.15;5.45;;;;;;;4.21;72.49;100015.94;1609894;86;20939;-74
2022/02/20 10:29:19;;;;;;;5.35;3.12;;;;;;;4.23;72.42;100020.63;1609007;87;20947;-74
2022/02/20 10:31:54;;;;;;;7.22;5.00;;;;;;;4.24;72.53;100021.06;1613189;86;20940;-74
2022/02/20 10:34:25;;;;;;;2.52;2.25;;;;;;;4.24;72.49;100021.91;1633994;86;20884;-74
2022/02/20 10:37:03;;;;;;;4.03;3.55;;;;;;;4.22;72.50;100026.17;1623923;87;20976;-74
2022/02/20 10:39:32;;;;;;;8.23;7.12;;;;;;;4.23;72.53;100023.19;1611522;86;20980;-74
2022/02/20 10:42:24;;;;;;;11.48;8.08;;;;;;;4.23;72.47;100022.77;1634529;87;20940;-74
2022/02/20 10:45:01;;;;;;;30.10;19.35;;;;;;;4.23;72.53;100018.92;1610025;87;20978;-74
2022/02/20 10:47:31;;;;;;;8.30;5.35;;;;;;;4.24;72.57;100014.23;1624430;86;20939;-74
2022/02/20 10:50:16;;;;;;;8.13;7.12;;;;;;;4.26;72.55;100017.64;1646733;85;20945;-74
2022/02/20 10:52:44;;;;;;;;;;;;;;;4.27;72.53;100023.62;1649485;85;20929;-74
2022/02/20 10:55:12;;;;;;;6.03;4.70;;;;;;;4.26;72.61;100016.80;1653944;85;20201;-74
2022/02/20 10:57:44;;;;;;;5.95;5.35;;;;;;;4.23;72.56;100014.23;1660338;85;20918;-74
2022/02/20 11:00:19;;;;;;;18.15;12.68;;;;;;;4.22;72.53;100021.05;1660503;85;21467;-74
2022/02/20 11:03:08;;;;;;;3.98;3.22;;;;;;;4.23;72.55;100028.31;1652827;86;20923;-74
2022/02/20 11:05:36;;;;;;;9.98;8.93;;;;;;;4.25;72.54;100025.32;1638315;86;20991;-74
2022/02/20 11:08:07;;;;;;;4.35;3.52;;;;;;;4.24;72.62;100023.19;1616679;87;20939;-74
2022/02/20 11:10:34;;;;;;;46.65;15.18;;;;;;;4.27;72.66;100024.90;1627016;87;20978;-74
2022/02/20 11:13:01;;;;;;;3.83;2.20;;;;;;;4.29;72.60;100024.47;1609362;87;20987;-74
2022/02/20 11:18:07;;;;;;;1.82;1.30;;;;;;;4.39;72.58;100022.34;1848344;76;28686;-73
2022/02/20 11:20:47;;;;;;;1.55;1.20;;;;;;;4.39;72.61;100029.16;1801888;77;21512;-73
2022/02/20 11:23:18;;;;;;;3.05;2.75;;;;;;;4.39;72.57;100030.02;1797710;78;20859;-73
2022/02/20 11:25:46;;;;;;;1.82;1.70;;;;;;;4.39;72.55;100024.90;1780399;79;20895;-72
2022/02/20 11:28:12;;;;;;;1.72;1.25;;;;;;;4.38;72.59;100029.59;1792374;78;20878;-72
2022/02/20 11:30:38;;;;;;;1.30;1.10;;;;;;;4.40;72.67;100028.31;1767720;80;20941;-72
2022/02/20 11:33:08;;;;;;;2.00;1.47;;;;;;;4.41;72.63;100035.13;1812157;78;20896;-73
2022/02/20 11:35:41;;;;;;;1.42;1.25;;;;;;;4.41;72.64;100025.75;1791288;78;20902;-73
2022/02/20 11:38:12;;;;;;;1.67;1.35;;;;;;;4.43;72.66;100032.15;1808861;78;21524;-72
2022/02/20 11:40:56;;;;;;;1.65;1.40;;;;;;;4.47;72.70;100021.05;1728373;79;21388;-73
2022/02/20 11:43:38;;;;;;;1.70;1.60;;;;;;;4.51;72.75;100018.92;1663361;84;21560;-73